createdAt,value
2022-11-25T00:01:29.401Z,9.40
2022-11-25T00:03:57.816Z,9.30
2022-11-25T00:06:30.791Z,9.50
2022-11-25T00:09:03.454Z,10.00
2022-11-25T00:11:30.689Z,10.30
2022-11-25T00:13:58.245Z,10.50
2022-11-25T00:16:26.628Z,9.40
2022-11-25T00:18:55.791Z,9.40
2022-11-25T00:21:26.157Z,9.70
2022-11-25T00:23:59.333Z,9.70
2022-11-25T00:26:27.971Z,9.80
2022-11-25T00:28:57.640Z,10.00
2022-11-25T00:31:28.517Z,10.10
2022-11-25T00:33:55.628Z,10.10
2022-11-25T00:36:30.925Z,10.20
2022-11-25T00:39:00.966Z,10.10
2022-11-25T00:41:47.975Z,9.10
2022-11-25T00:44:37.023Z,8.80
2022-11-25T00:47:15.370Z,9.50
2022-11-25T00:49:48.802Z,9.30
2022-11-25T00:52:20.160Z,9.60
2022-11-25T00:54:47.709Z,9.10
2022-11-25T00:57:16.614Z,9.20
2022-11-25T00:59:43.381Z,8.50
2022-11-25T01:02:12.218Z,8.50
2022-11-25T01:04:39.551Z,8.30
2022-11-25T01:07:07.238Z,8.40
2022-11-25T01:09:34.738Z,8.50
2022-11-25T01:12:01.610Z,8.60
2022-11-25T01:14:28.358Z,8.50
2022-11-25T01:16:55.238Z,8.50
2022-11-25T01:19:22.013Z,8.70
2022-11-25T01:21:49.101Z,9.20
2022-11-25T01:24:16.848Z,9.50
2022-11-25T01:26:44.643Z,9.80
2022-11-25T01:29:17.785Z,9.90
2022-11-25T01:31:45.851Z,9.80
2022-11-25T01:34:17.095Z,9.80
2022-11-25T01:36:44.469Z,9.90
2022-11-25T01:39:17.358Z,10.10
2022-11-25T01:41:44.479Z,10.30
2022-11-25T01:44:21.491Z,10.10
2022-11-25T01:46:53.478Z,10.20
2022-11-25T01:49:43.754Z,10.30
2022-11-25T01:52:21.108Z,10.50
2022-11-25T01:55:03.731Z,10.20
2022-11-25T01:57:50.840Z,10.30
2022-11-25T02:00:18.586Z,10.20
2022-11-25T02:02:48.318Z,10.10
2022-11-25T02:05:21.990Z,10.30
2022-11-25T02:07:51.341Z,10.40
2022-11-25T02:10:23.648Z,10.50
2022-11-25T02:12:51.875Z,9.80
2022-11-25T02:15:19.271Z,10.00
2022-11-25T02:17:46.405Z,10.00
2022-11-25T02:20:24.358Z,9.90
2022-11-25T02:23:07.346Z,9.80
2022-11-25T02:25:40.295Z,9.50
2022-11-25T02:28:22.313Z,9.90
2022-11-25T02:30:50.494Z,10.20
2022-11-25T02:33:18.006Z,10.10
2022-11-25T02:35:59.222Z,10.10
2022-11-25T02:39:00.743Z,10.40
2022-11-25T02:41:38.514Z,10.80
2022-11-25T02:44:05.583Z,11.00
2022-11-25T02:46:32.564Z,10.90
2022-11-25T02:49:08.888Z,10.90
2022-11-25T02:51:36.455Z,11.20
2022-11-25T02:54:03.348Z,11.20
2022-11-25T02:56:34.181Z,11.40
2022-11-25T02:59:01.574Z,11.50
2022-11-25T03:01:32.288Z,11.20
2022-11-25T03:04:00.038Z,10.90
2022-11-25T03:06:36.268Z,11.30
2022-11-25T03:09:13.652Z,10.70
2022-11-25T03:12:03.470Z,11.10
2022-11-25T03:14:43.898Z,11.30
2022-11-25T03:17:12.818Z,11.60
2022-11-25T03:19:39.966Z,11.40
2022-11-25T03:22:06.775Z,11.70
2022-11-25T03:24:34.362Z,11.60
2022-11-25T03:27:22.984Z,11.10
2022-11-25T03:29:50.100Z,11.30
2022-11-25T03:32:20.457Z,11.50
2022-11-25T03:35:34.436Z,11.20
2022-11-25T03:41:32.257Z,11.60
2022-11-25T03:46:43.489Z,11.30
2022-11-25T03:49:10.236Z,11.60
2022-11-25T03:51:36.974Z,11.80
2022-11-25T03:54:03.828Z,11.60
2022-11-25T03:56:30.562Z,11.80
2022-11-25T03:58:58.341Z,11.80
2022-11-25T04:01:25.194Z,11.90
2022-11-25T04:03:52.019Z,11.60
2022-11-25T04:06:20.132Z,11.90
2022-11-25T04:08:47.048Z,11.30
2022-11-25T04:11:13.785Z,11.60
2022-11-25T04:13:40.595Z,11.90
2022-11-25T04:16:07.319Z,11.70
2022-11-25T04:18:34.062Z,11.70
2022-11-25T04:21:00.805Z,11.90
2022-11-25T04:23:27.541Z,11.80
2022-11-25T04:25:54.278Z,11.90
2022-11-25T04:28:21.018Z,11.80
2022-11-25T04:30:47.894Z,12.10
2022-11-25T04:33:14.684Z,12.20
2022-11-25T04:35:41.408Z,12.00
2022-11-25T04:38:08.129Z,12.20
2022-11-25T04:40:34.903Z,12.30
2022-11-25T04:43:06.048Z,12.10
2022-11-25T04:45:51.869Z,12.10
2022-11-25T04:48:21.240Z,12.20
2022-11-25T04:50:47.963Z,11.60
2022-11-25T04:53:14.941Z,11.80
2022-11-25T04:55:42.353Z,11.80
2022-11-25T04:58:11.189Z,11.50
2022-11-25T05:00:38.065Z,11.00
2022-11-25T05:03:05.242Z,11.60
2022-11-25T05:05:32.137Z,10.80
2022-11-25T05:07:58.862Z,10.90
2022-11-25T05:10:25.612Z,10.80
2022-11-25T05:12:52.350Z,10.80
2022-11-25T05:15:19.134Z,10.90
2022-11-25T05:17:45.908Z,11.20
2022-11-25T05:20:13.268Z,11.30
2022-11-25T05:22:40.006Z,10.50
2022-11-25T05:25:07.160Z,10.70
2022-11-25T05:27:33.906Z,10.90
2022-11-25T05:30:00.662Z,10.90
2022-11-25T05:32:27.382Z,11.00
2022-11-25T05:34:54.143Z,11.10
2022-11-25T05:37:24.373Z,10.90
2022-11-25T05:39:51.541Z,10.90
2022-11-25T05:42:18.679Z,11.40
2022-11-25T05:44:45.437Z,11.30
2022-11-25T05:47:12.165Z,11.00
2022-11-25T05:49:38.922Z,11.20
2022-11-25T05:52:05.745Z,11.20
2022-11-25T05:54:32.513Z,11.10
2022-11-25T05:56:59.290Z,10.90
2022-11-25T05:59:26.233Z,11.60
2022-11-25T06:01:54.008Z,11.20
2022-11-25T06:04:20.766Z,11.20
2022-11-25T06:06:47.493Z,11.20
2022-11-25T06:09:14.383Z,11.10
2022-11-25T06:11:41.141Z,11.30
2022-11-25T06:14:08.233Z,11.10
2022-11-25T06:16:35.013Z,11.20
2022-11-25T06:19:06.592Z,11.10
2022-11-25T06:21:33.970Z,10.80
2022-11-25T06:24:01.226Z,10.90
2022-11-25T06:26:27.952Z,10.70
2022-11-25T06:28:56.318Z,11.50
2022-11-25T06:31:25.224Z,10.90
2022-11-25T06:33:53.892Z,11.10
2022-11-25T06:36:21.976Z,11.00
2022-11-25T06:38:54.476Z,10.60
2022-11-25T06:41:22.824Z,10.70
2022-11-25T06:43:50.014Z,11.10
2022-11-25T06:46:24.460Z,10.60
2022-11-25T06:48:55.297Z,10.60
2022-11-25T06:51:24.398Z,10.60
2022-11-25T06:53:51.134Z,10.70
2022-11-25T06:56:22.408Z,10.60
2022-11-25T06:58:50.720Z,10.60
2022-11-25T07:01:27.133Z,10.30
2022-11-25T07:03:59.060Z,10.30
2022-11-25T07:06:25.945Z,10.70
2022-11-25T07:08:53.176Z,10.30
2022-11-25T07:11:28.004Z,10.30
2022-11-25T07:14:08.105Z,10.60
2022-11-25T07:16:34.886Z,10.40
2022-11-25T07:19:02.974Z,10.30
2022-11-25T07:21:31.869Z,10.20
2022-11-25T07:24:04.099Z,10.20
2022-11-25T07:26:35.052Z,10.30
2022-11-25T07:29:06.372Z,10.20
2022-11-25T07:31:41.616Z,10.30
2022-11-25T07:34:18.729Z,10.20
2022-11-25T07:36:47.512Z,10.30
2022-11-25T07:39:23.068Z,10.10
2022-11-25T07:41:51.922Z,10.20
2022-11-25T07:44:19.742Z,11.00
2022-11-25T07:46:49.379Z,10.50
2022-11-25T07:49:20.643Z,10.60
2022-11-25T07:51:56.650Z,10.50
2022-11-25T07:54:23.815Z,10.50
2022-11-25T07:56:51.184Z,10.40
2022-11-25T07:59:21.405Z,10.50
2022-11-25T08:01:53.677Z,10.60
2022-11-25T08:04:21.386Z,10.90
2022-11-25T08:06:51.529Z,10.80
2022-11-25T08:09:22.563Z,11.00
2022-11-25T08:11:50.106Z,10.20
2022-11-25T08:14:17.510Z,10.20
2022-11-25T08:16:44.547Z,10.00
2022-11-25T08:19:14.714Z,10.40
2022-11-25T08:21:42.399Z,10.40
2022-11-25T08:24:16.409Z,10.50
2022-11-25T08:26:43.262Z,10.50
2022-11-25T08:29:15.081Z,10.50
2022-11-25T08:31:43.070Z,10.70
2022-11-25T08:34:19.964Z,10.20
2022-11-25T08:36:48.830Z,10.10
2022-11-25T08:42:07.726Z,10.00
2022-11-25T08:44:35.596Z,10.00
2022-11-25T08:47:02.429Z,10.10
2022-11-25T08:49:32.755Z,10.20
2022-11-25T08:52:01.620Z,10.10
2022-11-25T08:54:28.361Z,10.10
2022-11-25T08:56:55.075Z,10.30
2022-11-25T08:59:22.848Z,9.70
2022-11-25T09:01:49.637Z,9.60
2022-11-25T09:04:16.445Z,9.80
2022-11-25T09:06:43.196Z,9.50
2022-11-25T09:09:09.933Z,10.00
2022-11-25T09:11:36.726Z,10.20
2022-11-25T09:14:03.546Z,9.80
2022-11-25T09:16:30.638Z,9.60
2022-11-25T09:18:57.450Z,9.60
2022-11-25T09:21:24.917Z,9.50
2022-11-25T09:23:54.485Z,9.70
2022-11-25T09:26:28.869Z,9.30
2022-11-25T09:28:56.134Z,9.70
2022-11-25T09:31:23.919Z,9.70
2022-11-25T09:33:51.016Z,9.80
2022-11-25T09:36:19.731Z,9.60
2022-11-25T09:38:47.487Z,9.90
2022-11-25T09:42:12.474Z,9.90
2022-11-25T09:45:36.017Z,9.80
2022-11-25T09:48:27.705Z,9.80
2022-11-25T09:51:24.887Z,9.90
2022-11-25T09:53:56.969Z,9.70
2022-11-25T09:56:41.849Z,10.30
2022-11-25T09:59:23.730Z,10.50
2022-11-25T10:02:01.760Z,10.40
2022-11-25T10:04:53.497Z,10.20
2022-11-25T10:07:33.217Z,10.10
2022-11-25T10:10:04.377Z,9.90
2022-11-25T10:12:37.991Z,10.70
2022-11-25T10:15:37.038Z,10.70
2022-11-25T10:18:15.465Z,10.00
2022-11-25T10:20:43.037Z,10.20
2022-11-25T10:23:27.785Z,10.20
2022-11-25T10:26:09.834Z,10.50
2022-11-25T10:28:37.427Z,10.50
2022-11-25T10:31:36.334Z,10.30
2022-11-25T10:34:25.657Z,10.40
2022-11-25T10:36:54.431Z,10.70
2022-11-25T10:39:27.038Z,10.80
2022-11-25T10:42:03.365Z,10.40
2022-11-25T10:44:37.054Z,10.20
2022-11-25T10:47:21.048Z,9.80
2022-11-25T10:50:07.447Z,10.10
2022-11-25T10:52:51.397Z,10.00
2022-11-25T10:55:26.200Z,10.10
2022-11-25T10:57:54.059Z,10.20
2022-11-25T11:00:39.031Z,10.00
2022-11-25T11:03:24.018Z,10.00
2022-11-25T11:05:54.524Z,10.10
2022-11-25T11:08:38.350Z,10.20
2022-11-25T11:11:21.319Z,10.10
2022-11-25T11:13:50.501Z,10.00
2022-11-25T11:16:28.075Z,10.00
2022-11-25T11:18:56.862Z,10.00
2022-11-25T11:21:41.707Z,10.00
2022-11-25T11:24:38.120Z,10.20
2022-11-25T11:27:27.323Z,10.10
2022-11-25T11:30:29.295Z,10.20
2022-11-25T11:33:07.112Z,10.20
2022-11-25T11:36:13.104Z,10.20
2022-11-25T11:39:08.463Z,10.30
2022-11-25T11:41:49.896Z,10.10
2022-11-25T11:44:39.534Z,10.30
2022-11-25T11:47:26.729Z,10.60
2022-11-25T11:49:59.160Z,10.30
2022-11-25T11:52:58.476Z,10.20
2022-11-25T11:56:26.849Z,10.10
2022-11-25T11:59:12.365Z,10.00
2022-11-25T12:02:24.384Z,10.20
2022-11-25T12:05:16.132Z,10.20
2022-11-25T12:07:57.930Z,10.10
2022-11-25T12:10:37.815Z,10.40
2022-11-25T12:13:19.306Z,10.30
2022-11-25T12:16:12.581Z,9.90
2022-11-25T12:19:24.252Z,10.00
2022-11-25T12:22:33.793Z,10.80
2022-11-25T12:25:08.722Z,10.50
2022-11-25T12:27:41.563Z,10.40
2022-11-25T12:30:20.725Z,11.20
2022-11-25T12:33:16.820Z,10.90
2022-11-25T12:35:58.521Z,10.90
2022-11-25T12:39:00.463Z,11.20
2022-11-25T12:41:27.107Z,10.80
2022-11-25T12:44:09.913Z,10.60
2022-11-25T12:46:48.738Z,10.70
2022-11-25T12:49:22.249Z,10.30
2022-11-25T12:52:41.018Z,10.70
2022-11-25T12:55:19.432Z,11.30
2022-11-25T12:58:16.597Z,11.00
2022-11-25T13:01:11.932Z,11.40
2022-11-25T13:04:01.102Z,11.00
2022-11-25T13:06:48.582Z,11.60
2022-11-25T13:10:05.192Z,11.60
2022-11-25T13:12:56.072Z,11.00
2022-11-25T13:15:31.969Z,11.30
2022-11-25T13:18:10.875Z,11.70
2022-11-25T13:20:47.200Z,12.50
2022-11-25T13:23:16.957Z,12.30
2022-11-25T13:25:47.019Z,12.60
2022-11-25T13:28:30.618Z,12.30
2022-11-25T13:31:19.336Z,12.40
2022-11-25T13:33:46.172Z,12.50
2022-11-25T13:36:25.302Z,12.60
2022-11-25T13:38:51.937Z,12.30
2022-11-25T13:41:37.010Z,11.90
2022-11-25T13:44:21.524Z,11.70
2022-11-25T13:46:52.276Z,12.40
2022-11-25T13:49:50.014Z,12.80
2022-11-25T13:52:40.089Z,12.90
2022-11-25T13:55:39.026Z,12.60
2022-11-25T13:58:25.579Z,13.20
2022-11-25T14:01:04.055Z,13.50
2022-11-25T14:03:30.777Z,13.50
2022-11-25T14:06:19.249Z,13.60
2022-11-25T14:09:28.150Z,13.30
2022-11-25T14:12:37.462Z,13.60
2022-11-25T14:15:49.513Z,13.90
2022-11-25T14:19:12.023Z,13.60
2022-11-25T14:22:05.472Z,14.10
2022-11-25T14:25:14.880Z,13.90
2022-11-25T14:27:47.955Z,14.20
2022-11-25T14:30:16.949Z,13.80
2022-11-25T14:32:56.880Z,13.80
2022-11-25T14:35:38.954Z,14.10
2022-11-25T14:38:19.923Z,14.70
2022-11-25T14:41:00.029Z,14.10
2022-11-25T14:43:29.274Z,13.90
2022-11-25T14:46:15.291Z,13.70
2022-11-25T14:48:43.894Z,13.70
2022-11-25T14:51:16.499Z,13.40
2022-11-25T14:53:50.646Z,13.50
2022-11-25T14:56:29.997Z,13.30
2022-11-25T14:58:58.860Z,13.50
2022-11-25T15:01:28.446Z,13.40
2022-11-25T15:04:25.894Z,13.30
2022-11-25T15:07:00.774Z,13.40
2022-11-25T15:09:42.759Z,13.40
2022-11-25T15:12:19.373Z,13.40
2022-11-25T15:14:53.334Z,13.10
2022-11-25T15:17:32.554Z,12.70
2022-11-25T15:20:10.354Z,11.80
2022-11-25T15:22:37.091Z,12.10
2022-11-25T15:25:14.311Z,11.60
2022-11-25T15:27:49.640Z,11.60
2022-11-25T15:30:29.175Z,11.40
2022-11-25T15:32:57.039Z,11.50
2022-11-25T15:35:27.024Z,11.40
2022-11-25T15:37:54.322Z,11.30
2022-11-25T15:40:32.216Z,11.30
2022-11-25T15:43:00.846Z,11.20
2022-11-25T15:45:37.196Z,11.20
2022-11-25T15:48:04.490Z,11.10
2022-11-25T15:50:34.175Z,11.30
2022-11-25T15:53:01.653Z,11.50
2022-11-25T15:55:36.493Z,11.30
2022-11-25T15:58:04.765Z,11.30
2022-11-25T16:00:31.737Z,11.60
2022-11-25T16:02:59.413Z,12.10
2022-11-25T16:05:35.443Z,12.10
2022-11-25T16:08:19.112Z,12.10
2022-11-25T16:10:45.922Z,12.30
2022-11-25T16:13:22.620Z,11.90
2022-11-25T16:15:58.575Z,12.10
2022-11-25T16:18:40.652Z,11.90
2022-11-25T16:21:15.796Z,11.90
2022-11-25T16:23:47.746Z,12.00
2022-11-25T16:26:17.731Z,12.00
2022-11-25T16:28:54.039Z,12.00
2022-11-25T16:31:21.872Z,12.00
2022-11-25T16:33:48.711Z,11.30
2022-11-25T16:36:16.081Z,11.60
2022-11-25T16:39:11.540Z,12.00
2022-11-25T16:42:29.748Z,11.70
2022-11-25T16:45:29.081Z,12.10
2022-11-25T16:47:56.138Z,12.00
2022-11-25T16:50:34.313Z,12.10
2022-11-25T16:53:13.703Z,11.30
2022-11-25T16:55:50.834Z,11.40
2022-11-25T16:58:37.166Z,11.00
2022-11-25T17:01:26.816Z,10.90
2022-11-25T17:03:53.909Z,11.00
2022-11-25T17:06:24.533Z,11.60
2022-11-25T17:08:52.113Z,10.90
2022-11-25T17:11:31.145Z,10.80
2022-11-25T17:14:04.847Z,10.70
2022-11-25T17:16:33.832Z,10.80
2022-11-25T17:19:00.829Z,11.10
2022-11-25T17:21:29.072Z,11.30
2022-11-25T17:24:05.033Z,11.70
2022-11-25T17:26:43.010Z,11.20
2022-11-25T17:29:23.182Z,10.70
2022-11-25T17:31:55.116Z,10.70
2022-11-25T17:34:25.995Z,10.80
2022-11-25T17:36:53.025Z,10.70
2022-11-25T17:39:22.213Z,10.80
2022-11-25T17:41:54.057Z,11.00
2022-11-25T17:44:31.199Z,11.00
2022-11-25T17:47:10.541Z,11.30
2022-11-25T17:49:48.307Z,11.10
2022-11-25T17:52:15.428Z,11.10
2022-11-25T17:54:42.210Z,11.40
2022-11-25T17:57:15.974Z,11.50
2022-11-25T17:59:42.810Z,10.70
2022-11-25T18:02:21.806Z,10.50
2022-11-25T18:04:49.928Z,10.10
2022-11-25T18:07:17.440Z,10.00
2022-11-25T18:09:44.888Z,10.10
2022-11-25T18:12:25.314Z,10.70
2022-11-25T18:14:52.145Z,11.10
2022-11-25T18:17:19.284Z,10.80
2022-11-25T18:19:53.156Z,11.20
2022-11-25T18:22:23.427Z,11.20
2022-11-25T18:24:50.420Z,11.30
2022-11-25T18:27:31.975Z,11.10
2022-11-25T18:30:01.354Z,11.00
2022-11-25T18:32:28.083Z,10.50
2022-11-25T18:34:54.910Z,10.60
2022-11-25T18:37:21.720Z,10.30
2022-11-25T18:39:48.537Z,10.60
2022-11-25T18:42:25.978Z,10.90
2022-11-25T18:44:56.380Z,11.10
2022-11-25T18:47:23.846Z,11.00
2022-11-25T18:49:55.384Z,10.90
2022-11-25T18:52:24.637Z,10.30
2022-11-25T18:54:51.639Z,10.50
2022-11-25T18:57:18.467Z,10.70
2022-11-25T18:59:48.023Z,11.00
2022-11-25T19:02:23.108Z,11.00
2022-11-25T19:04:49.929Z,10.60
2022-11-25T19:07:16.760Z,10.10
2022-11-25T19:09:43.536Z,10.30
2022-11-25T19:12:15.880Z,10.40
2022-11-25T19:14:42.999Z,10.10
2022-11-25T19:17:21.635Z,10.10
2022-11-25T19:19:48.416Z,10.10
2022-11-25T19:22:17.589Z,10.50
2022-11-25T19:24:45.966Z,10.60
2022-11-25T19:27:24.006Z,10.90
2022-11-25T19:29:52.300Z,10.90
2022-11-25T19:32:24.706Z,10.80
2022-11-25T19:35:06.372Z,10.90
2022-11-25T19:37:33.153Z,11.00
2022-11-25T19:39:59.939Z,11.00
2022-11-25T19:42:28.230Z,10.90
2022-11-25T19:44:55.137Z,10.80
2022-11-25T19:47:25.099Z,10.80
2022-11-25T19:49:56.446Z,10.80
2022-11-25T19:52:28.241Z,10.90
2022-11-25T19:54:54.970Z,10.60
2022-11-25T19:57:24.423Z,10.60
2022-11-25T19:59:51.328Z,10.20
2022-11-25T20:02:22.162Z,10.70
2022-11-25T20:04:53.278Z,10.60
2022-11-25T20:07:21.577Z,10.50
2022-11-25T20:09:51.384Z,10.50
2022-11-25T20:12:21.297Z,10.70
2022-11-25T20:14:48.582Z,10.80
2022-11-25T20:17:31.196Z,10.70
2022-11-25T20:20:07.095Z,10.80
2022-11-25T20:22:37.650Z,10.90
2022-11-25T20:25:07.295Z,11.10
2022-11-25T20:27:34.183Z,11.10
2022-11-25T20:30:00.942Z,11.20
2022-11-25T20:32:31.341Z,11.20
2022-11-25T20:34:59.388Z,11.20
2022-11-25T20:37:29.466Z,11.30
2022-11-25T20:40:00.132Z,11.10
2022-11-25T20:42:27.685Z,11.20
2022-11-25T20:44:57.581Z,11.30
2022-11-25T20:47:26.457Z,11.20
2022-11-25T20:49:53.924Z,11.30
2022-11-25T20:52:32.010Z,11.20
2022-11-25T20:54:59.901Z,11.30
2022-11-25T20:57:26.618Z,11.30
2022-11-25T20:59:53.431Z,11.20
2022-11-25T21:02:21.598Z,11.10
2022-11-25T21:04:48.533Z,11.30
2022-11-25T21:07:17.808Z,11.10
2022-11-25T21:09:44.842Z,10.90
2022-11-25T21:12:19.215Z,10.70
2022-11-25T21:14:47.238Z,10.70
2022-11-25T21:17:13.978Z,10.90
2022-11-25T21:19:40.721Z,10.90
2022-11-25T21:22:12.901Z,10.90
2022-11-25T21:24:42.314Z,10.90
2022-11-25T21:27:15.580Z,10.80
2022-11-25T21:29:46.206Z,10.70
2022-11-25T21:32:26.014Z,11.00
2022-11-25T21:34:53.555Z,10.80
2022-11-25T21:37:31.079Z,10.60
2022-11-25T21:40:01.013Z,10.60
2022-11-25T21:42:30.049Z,10.90
2022-11-25T21:44:56.844Z,11.20
2022-11-25T21:47:26.998Z,11.30
2022-11-25T21:49:53.868Z,11.20
2022-11-25T21:52:20.737Z,11.10
2022-11-25T21:54:47.731Z,11.20
2022-11-25T21:57:27.090Z,11.30
2022-11-25T21:59:54.524Z,11.30
2022-11-25T22:02:24.079Z,11.30
2022-11-25T22:04:52.210Z,11.30
2022-11-25T22:07:19.008Z,11.20
2022-11-25T22:09:45.783Z,11.50
2022-11-25T22:12:38.188Z,11.40
2022-11-25T22:15:20.971Z,11.50
2022-11-25T22:17:48.952Z,11.40
2022-11-25T22:20:31.022Z,11.40
2022-11-25T22:22:57.803Z,11.30
2022-11-25T22:25:27.206Z,11.40
2022-11-25T22:27:54.207Z,11.30
2022-11-25T22:30:22.867Z,11.30
2022-11-25T22:32:59.540Z,10.70
2022-11-25T22:35:26.354Z,10.90
2022-11-25T22:37:55.369Z,11.20
2022-11-25T22:40:23.421Z,11.30
2022-11-25T22:42:51.783Z,11.40
2022-11-25T22:45:44.906Z,11.40
2022-11-25T22:48:18.898Z,11.60
2022-11-25T22:50:46.815Z,11.60
2022-11-25T22:53:17.954Z,11.30
2022-11-25T22:55:45.734Z,11.30
2022-11-25T22:58:14.359Z,11.10
2022-11-25T23:00:45.254Z,10.90
2022-11-25T23:03:29.076Z,10.80
2022-11-25T23:05:56.959Z,11.10
2022-11-25T23:08:27.731Z,11.20
2022-11-25T23:10:55.638Z,11.10
2022-11-25T23:13:23.056Z,11.10
2022-11-25T23:15:53.557Z,11.30
2022-11-25T23:18:44.091Z,11.20
2022-11-25T23:21:22.363Z,11.20
2022-11-25T23:23:49.986Z,11.00
2022-11-25T23:26:17.084Z,10.80
2022-11-25T23:28:43.839Z,10.40
2022-11-25T23:31:13.862Z,10.80
2022-11-25T23:33:45.271Z,10.60
2022-11-25T23:36:13.361Z,10.30
2022-11-25T23:38:49.362Z,10.50
2022-11-25T23:41:22.455Z,10.90
2022-11-25T23:43:49.966Z,11.10
2022-11-25T23:46:20.592Z,10.90
2022-11-25T23:48:55.487Z,10.60
2022-11-25T23:51:27.327Z,10.30
2022-11-25T23:53:55.829Z,10.30
2022-11-25T23:56:23.335Z,10.00
2022-11-25T23:58:50.429Z,10.10
